createdAt,value
2022-08-29T00:00:45.726Z,93.04
2022-08-29T00:01:45.732Z,92.83
2022-08-29T00:02:45.706Z,92.74
2022-08-29T00:03:45.922Z,92.74
2022-08-29T00:04:45.666Z,92.74
2022-08-29T00:05:49.922Z,92.74
2022-08-29T00:06:45.759Z,92.74
2022-08-29T00:07:45.647Z,92.63
2022-08-29T00:08:45.634Z,92.74
2022-08-29T00:09:45.589Z,92.83
2022-08-29T00:10:45.589Z,92.94
2022-08-29T00:11:46.660Z,92.94
2022-08-29T00:12:45.593Z,93.04
2022-08-29T00:13:45.546Z,93.04
2022-08-29T00:14:45.520Z,93.04
2022-08-29T00:15:45.800Z,93.14
2022-08-29T00:16:45.535Z,93.14
2022-08-29T00:17:45.472Z,93.04
2022-08-29T00:18:45.518Z,93.04
2022-08-29T00:19:45.451Z,93.04
2022-08-29T00:20:45.440Z,93.04
2022-08-29T00:21:45.444Z,93.04
2022-08-29T00:22:45.553Z,93.04
2022-08-29T00:23:45.436Z,92.94
2022-08-29T00:24:45.382Z,93.04
2022-08-29T00:25:45.459Z,93.04
2022-08-29T00:26:45.373Z,93.14
2022-08-29T00:27:49.730Z,93.14
2022-08-29T00:28:45.371Z,93.14
2022-08-29T00:29:45.308Z,93.14
2022-08-29T00:30:45.315Z,93.04
2022-08-29T00:31:45.376Z,93.14
2022-08-29T00:32:45.281Z,93.14
2022-08-29T00:33:45.279Z,93.04
2022-08-29T00:34:45.276Z,93.04
2022-08-29T00:35:45.268Z,93.14
2022-08-29T00:36:49.075Z,93.14
2022-08-29T00:37:45.228Z,93.30
2022-08-29T00:38:45.235Z,93.44
2022-08-29T00:39:45.215Z,93.44
2022-08-29T00:40:51.552Z,93.44
2022-08-29T00:41:46.157Z,93.44
2022-08-29T00:42:45.277Z,93.44
2022-08-29T00:43:45.134Z,93.54
2022-08-29T00:44:45.211Z,93.54
2022-08-29T00:45:45.149Z,93.54
2022-08-29T00:46:45.118Z,93.54
2022-08-29T00:47:45.098Z,93.65
2022-08-29T00:48:45.058Z,93.74
2022-08-29T00:49:45.099Z,93.65
2022-08-29T00:50:45.059Z,93.65
2022-08-29T00:51:45.033Z,93.54
2022-08-29T00:52:45.006Z,93.54
2022-08-29T00:53:45.026Z,93.54
2022-08-29T00:54:44.994Z,93.54
2022-08-29T00:55:44.958Z,93.44
2022-08-29T00:56:45.989Z,93.40
2022-08-29T00:57:44.949Z,93.30
2022-08-29T00:58:44.929Z,93.30
2022-08-29T00:59:44.910Z,93.19
2022-08-29T01:00:45.024Z,93.19
2022-08-29T01:01:44.998Z,93.10
2022-08-29T01:02:44.985Z,93.30
2022-08-29T01:03:44.910Z,93.30
2022-08-29T01:04:44.836Z,93.30
2022-08-29T01:05:44.873Z,93.34
2022-08-29T01:06:44.931Z,93.30
2022-08-29T01:07:44.806Z,93.40
2022-08-29T01:08:44.821Z,93.19
2022-08-29T01:09:44.824Z,93.30
2022-08-29T01:10:44.764Z,93.30
2022-08-29T01:11:44.741Z,93.30
2022-08-29T01:12:44.730Z,93.30
2022-08-29T01:13:44.722Z,93.40
2022-08-29T01:14:44.721Z,93.40
2022-08-29T01:15:44.732Z,93.50
2022-08-29T01:16:44.723Z,93.50
2022-08-29T01:17:44.690Z,93.50
2022-08-29T01:18:44.645Z,93.60
2022-08-29T01:19:44.662Z,93.60
2022-08-29T01:20:44.689Z,93.60
2022-08-29T01:21:44.646Z,93.70
2022-08-29T01:22:44.607Z,93.70
2022-08-29T01:23:44.592Z,93.70
2022-08-29T01:24:44.620Z,93.70
2022-08-29T01:25:44.586Z,93.60
2022-08-29T01:26:44.647Z,93.60
2022-08-29T01:27:44.581Z,93.65
2022-08-29T01:28:44.564Z,93.74
2022-08-29T01:29:44.487Z,93.85
2022-08-29T01:30:45.162Z,93.95
2022-08-29T01:31:56.906Z,93.95
2022-08-29T01:32:45.475Z,93.85
2022-08-29T01:33:44.546Z,93.85
2022-08-29T01:34:44.430Z,93.74
2022-08-29T01:35:44.444Z,93.70
2022-08-29T01:36:44.466Z,93.85
2022-08-29T01:37:44.394Z,93.85
2022-08-29T01:38:44.467Z,93.85
2022-08-29T01:39:44.404Z,94.05
2022-08-29T01:40:44.440Z,94.05
2022-08-29T01:41:44.364Z,94.15
2022-08-29T01:42:44.331Z,94.15
2022-08-29T01:43:44.437Z,94.25
2022-08-29T01:44:44.301Z,94.25
2022-08-29T01:45:44.367Z,94.25
2022-08-29T01:46:44.363Z,94.25
2022-08-29T01:47:44.263Z,94.25
2022-08-29T01:48:44.313Z,94.35
2022-08-29T01:49:44.229Z,94.35
2022-08-29T01:50:44.234Z,94.45
2022-08-29T01:51:44.196Z,94.55
2022-08-29T01:52:44.190Z,94.55
2022-08-29T01:53:44.249Z,94.55
2022-08-29T01:54:44.157Z,94.65
2022-08-29T01:55:44.162Z,94.65
2022-08-29T01:56:44.185Z,94.75
2022-08-29T01:57:44.123Z,94.75
2022-08-29T01:58:44.145Z,94.75
2022-08-29T01:59:44.109Z,94.75
2022-08-29T02:00:44.213Z,94.65
2022-08-29T02:01:44.149Z,94.45
2022-08-29T02:02:44.063Z,94.45
2022-08-29T02:03:44.046Z,94.45
2022-08-29T02:04:44.046Z,94.55
2022-08-29T02:05:44.016Z,94.65
2022-08-29T02:06:44.038Z,94.75
2022-08-29T02:07:43.989Z,94.95
2022-08-29T02:08:43.964Z,94.95
2022-08-29T02:09:45.699Z,94.95
2022-08-29T02:10:43.977Z,94.95
2022-08-29T02:11:43.936Z,95.06
2022-08-29T02:12:43.950Z,95.15
2022-08-29T02:13:43.896Z,95.15
2022-08-29T02:14:43.945Z,95.26
2022-08-29T02:15:43.973Z,95.36
2022-08-29T02:16:43.964Z,95.46
2022-08-29T02:17:43.859Z,95.56
2022-08-29T02:18:43.829Z,95.56
2022-08-29T02:19:43.834Z,95.66
2022-08-29T02:20:44.022Z,95.76
2022-08-29T02:21:43.809Z,95.76
2022-08-29T02:22:43.787Z,95.66
2022-08-29T02:23:43.774Z,95.56
2022-08-29T02:24:43.749Z,95.56
2022-08-29T02:25:43.893Z,95.46
2022-08-29T02:26:43.755Z,95.31
2022-08-29T02:27:43.748Z,95.31
2022-08-29T02:28:43.732Z,95.36
2022-08-29T02:29:43.708Z,95.31
2022-08-29T02:30:43.704Z,95.21
2022-08-29T02:31:43.713Z,95.21
2022-08-29T02:32:43.697Z,95.11
2022-08-29T02:33:43.713Z,95.11
2022-08-29T02:34:44.716Z,95.11
2022-08-29T02:35:43.653Z,95.11
2022-08-29T02:36:44.688Z,95.21
2022-08-29T02:37:43.592Z,95.31
2022-08-29T02:38:43.588Z,95.46
2022-08-29T02:39:43.637Z,95.56
2022-08-29T02:40:43.759Z,95.56
2022-08-29T02:41:44.510Z,95.66
2022-08-29T02:42:43.517Z,95.76
2022-08-29T02:43:43.534Z,95.86
2022-08-29T02:44:43.501Z,95.86
2022-08-29T02:45:43.494Z,95.96
2022-08-29T02:46:43.519Z,96.06
2022-08-29T02:47:43.476Z,96.06
2022-08-29T02:48:49.247Z,96.16
2022-08-29T02:49:44.436Z,96.36
2022-08-29T02:50:43.515Z,96.47
2022-08-29T02:51:43.405Z,96.56
2022-08-29T02:52:43.407Z,96.56
2022-08-29T02:53:43.443Z,96.56
2022-08-29T02:54:43.363Z,96.56
2022-08-29T02:55:43.366Z,96.56
2022-08-29T02:56:43.372Z,96.56
2022-08-29T02:57:43.334Z,96.56
2022-08-29T02:58:43.484Z,96.67
2022-08-29T02:59:43.296Z,96.56
2022-08-29T03:00:43.325Z,96.56
2022-08-29T03:01:43.319Z,96.56
2022-08-29T03:02:43.267Z,96.56
2022-08-29T03:03:43.261Z,96.56
2022-08-29T03:04:43.234Z,96.56
2022-08-29T03:05:43.224Z,96.47
2022-08-29T03:06:43.198Z,96.47
2022-08-29T03:07:44.482Z,96.51
2022-08-29T03:08:43.181Z,96.61
2022-08-29T03:09:43.209Z,96.61
2022-08-29T03:10:43.175Z,96.71
2022-08-29T03:11:43.169Z,97.02
2022-08-29T03:12:43.121Z,97.12
2022-08-29T03:13:43.231Z,97.22
2022-08-29T03:14:43.109Z,97.32
2022-08-29T03:15:43.133Z,97.52
2022-08-29T03:16:43.087Z,97.62
2022-08-29T03:17:43.069Z,97.62
2022-08-29T03:18:43.073Z,97.67
2022-08-29T03:19:43.039Z,97.67
2022-08-29T03:20:43.045Z,97.77
2022-08-29T03:21:43.007Z,97.87
2022-08-29T03:22:42.997Z,97.87
2022-08-29T03:23:43.015Z,97.97
2022-08-29T03:24:43.018Z,97.97
2022-08-29T03:25:42.980Z,97.97
2022-08-29T03:26:42.944Z,98.07
2022-08-29T03:27:42.944Z,98.07
2022-08-29T03:28:42.938Z,98.17
2022-08-29T03:29:42.962Z,98.17
2022-08-29T03:30:42.913Z,98.17
2022-08-29T03:31:42.990Z,98.17
2022-08-29T03:32:42.864Z,98.17
2022-08-29T03:33:42.852Z,98.17
2022-08-29T03:34:42.832Z,98.27
2022-08-29T03:35:42.860Z,98.27
2022-08-29T03:36:42.805Z,98.37
2022-08-29T03:37:42.922Z,98.37
2022-08-29T03:38:42.825Z,98.58
2022-08-29T03:39:42.786Z,98.78
2022-08-29T03:40:42.857Z,98.93
2022-08-29T03:41:42.750Z,98.82
2022-08-29T03:42:42.739Z,98.93
2022-08-29T03:43:42.719Z,98.93
2022-08-29T03:44:42.718Z,98.93
2022-08-29T03:45:42.703Z,98.93
2022-08-29T03:46:42.740Z,98.93
2022-08-29T03:47:42.734Z,98.93
2022-08-29T03:48:42.740Z,98.93
2022-08-29T03:49:42.642Z,98.93
2022-08-29T03:50:42.647Z,99.02
2022-08-29T03:51:42.633Z,99.02
2022-08-29T03:52:42.612Z,99.22
2022-08-29T03:53:42.583Z,99.22
2022-08-29T03:54:42.567Z,99.22
2022-08-29T03:55:42.574Z,99.22
2022-08-29T03:56:42.614Z,99.33
2022-08-29T03:57:42.530Z,99.33
2022-08-29T03:58:42.513Z,99.38
2022-08-29T03:59:42.517Z,99.48
2022-08-29T04:00:42.531Z,99.48
2022-08-29T04:01:42.640Z,99.48
2022-08-29T04:02:42.819Z,99.58
2022-08-29T04:03:42.456Z,99.68
2022-08-29T04:04:42.513Z,99.78
2022-08-29T04:05:42.480Z,99.78
2022-08-29T04:06:42.410Z,99.88
2022-08-29T04:07:42.514Z,99.98
2022-08-29T04:08:42.376Z,99.99
2022-08-29T04:09:42.441Z,99.99
2022-08-29T04:10:42.457Z,99.99
2022-08-29T04:11:42.348Z,99.99
2022-08-29T04:12:42.320Z,99.99
2022-08-29T04:13:42.335Z,99.99
2022-08-29T04:14:42.304Z,99.99
2022-08-29T04:15:42.451Z,99.99
2022-08-29T04:16:42.306Z,99.99
2022-08-29T04:17:53.036Z,99.99
2022-08-29T04:18:43.264Z,99.99
2022-08-29T04:19:42.246Z,99.99
2022-08-29T04:20:42.304Z,99.99
2022-08-29T04:21:42.267Z,99.99
2022-08-29T04:22:42.255Z,99.99
2022-08-29T04:23:42.223Z,99.99
2022-08-29T04:24:42.204Z,99.99
2022-08-29T04:25:42.184Z,99.99
2022-08-29T04:26:42.144Z,99.99
2022-08-29T04:27:42.144Z,99.99
2022-08-29T04:28:42.148Z,99.99
2022-08-29T04:29:42.145Z,99.88
2022-08-29T04:30:42.260Z,99.73
2022-08-29T04:31:42.268Z,99.68
2022-08-29T04:32:42.111Z,99.68
2022-08-29T04:33:42.087Z,99.58
2022-08-29T04:34:42.037Z,99.48
2022-08-29T04:35:42.080Z,99.38
2022-08-29T04:36:42.019Z,99.33
2022-08-29T04:37:42.035Z,99.22
2022-08-29T04:38:42.003Z,99.08
2022-08-29T04:39:41.971Z,99.08
2022-08-29T04:40:42.092Z,98.98
2022-08-29T04:41:42.020Z,98.98
2022-08-29T04:42:41.977Z,98.78
2022-08-29T04:43:41.935Z,98.52
2022-08-29T04:44:41.906Z,98.42
2022-08-29T04:45:41.924Z,98.32
2022-08-29T04:46:42.061Z,98.22
2022-08-29T04:47:41.873Z,98.22
2022-08-29T04:48:41.857Z,98.22
2022-08-29T04:49:41.846Z,98.22
2022-08-29T04:50:41.963Z,98.11
2022-08-29T04:51:41.828Z,97.91
2022-08-29T04:52:41.808Z,97.41
2022-08-29T04:53:41.796Z,97.41
2022-08-29T04:54:41.841Z,97.31
2022-08-29T04:55:41.790Z,97.21
2022-08-29T04:56:45.293Z,97.21
2022-08-29T04:57:42.770Z,97.01
2022-08-29T04:58:41.747Z,96.91
2022-08-29T04:59:41.768Z,96.60
2022-08-29T05:00:41.773Z,96.40
2022-08-29T05:01:42.395Z,96.40
2022-08-29T05:02:41.765Z,96.30
2022-08-29T05:03:41.689Z,96.30
2022-08-29T05:04:41.756Z,96.20
2022-08-29T05:05:41.651Z,96.15
2022-08-29T05:06:41.664Z,96.05
2022-08-29T05:07:41.645Z,95.95
2022-08-29T05:08:41.608Z,95.85
2022-08-29T05:09:41.600Z,95.75
2022-08-29T05:10:41.657Z,95.55
2022-08-29T05:11:42.101Z,95.35
2022-08-29T05:12:41.687Z,95.39
2022-08-29T05:13:42.602Z,95.39
2022-08-29T05:14:41.587Z,95.39
2022-08-29T05:15:41.623Z,95.29
2022-08-29T05:16:41.495Z,95.19
2022-08-29T05:17:41.606Z,94.89
2022-08-29T05:18:41.504Z,94.79
2022-08-29T05:19:45.066Z,94.79
2022-08-29T05:20:42.207Z,94.68
2022-08-29T05:21:41.429Z,94.59
2022-08-29T05:22:41.419Z,94.59
2022-08-29T05:23:41.436Z,94.48
2022-08-29T05:24:41.437Z,94.48
2022-08-29T05:25:41.461Z,94.38
2022-08-29T05:26:41.374Z,94.38
2022-08-29T05:27:41.397Z,94.38
2022-08-29T05:28:41.482Z,94.34
2022-08-29T05:29:41.387Z,94.34
2022-08-29T05:30:41.401Z,94.24
2022-08-29T05:31:41.432Z,94.24
2022-08-29T05:32:41.329Z,94.09
2022-08-29T05:33:41.313Z,93.89
2022-08-29T05:34:41.288Z,93.59
2022-08-29T05:35:41.267Z,93.38
2022-08-29T05:36:41.269Z,92.98
2022-08-29T05:37:41.487Z,92.68
2022-08-29T05:38:41.259Z,92.58
2022-08-29T05:39:41.541Z,92.47
2022-08-29T05:40:41.222Z,92.18
2022-08-29T05:41:41.200Z,92.27
2022-08-29T05:42:41.167Z,92.38
2022-08-29T05:43:41.151Z,92.38
2022-08-29T05:44:41.165Z,92.27
2022-08-29T05:45:41.148Z,92.18
2022-08-29T05:46:41.229Z,92.07
2022-08-29T05:47:41.100Z,92.07
2022-08-29T05:48:41.084Z,91.87
2022-08-29T05:49:41.111Z,91.77
2022-08-29T05:50:41.745Z,91.67
2022-08-29T05:51:41.056Z,91.57
2022-08-29T05:52:41.043Z,91.57
2022-08-29T05:53:41.031Z,91.57
2022-08-29T05:54:41.056Z,91.47
2022-08-29T05:55:41.077Z,91.37
2022-08-29T05:56:40.985Z,91.27
2022-08-29T05:57:40.965Z,91.27
2022-08-29T05:58:40.949Z,91.06
2022-08-29T05:59:40.994Z,90.97
2022-08-29T06:00:42.797Z,90.86
2022-08-29T06:01:40.968Z,90.86
2022-08-29T06:02:40.983Z,91.06
2022-08-29T06:03:45.441Z,91.17
2022-08-29T06:04:41.936Z,90.97
2022-08-29T06:05:40.882Z,90.97
2022-08-29T06:06:40.886Z,90.97
2022-08-29T06:07:40.842Z,90.97
2022-08-29T06:08:40.837Z,91.06
2022-08-29T06:09:40.848Z,91.17
2022-08-29T06:10:41.121Z,91.17
2022-08-29T06:11:40.814Z,91.27
2022-08-29T06:12:40.777Z,91.37
2022-08-29T06:13:40.782Z,91.27
2022-08-29T06:14:50.504Z,91.17
2022-08-29T06:15:41.860Z,91.27
2022-08-29T06:16:40.748Z,91.27
2022-08-29T06:17:40.803Z,91.17
2022-08-29T06:18:40.793Z,91.17
2022-08-29T06:19:40.701Z,91.17
2022-08-29T06:20:40.674Z,91.06
2022-08-29T06:21:40.677Z,91.13
2022-08-29T06:22:40.786Z,90.92
2022-08-29T06:23:40.633Z,90.82
2022-08-29T06:24:40.625Z,90.92
2022-08-29T06:25:40.716Z,90.92
2022-08-29T06:26:40.696Z,90.92
2022-08-29T06:27:40.640Z,90.92
2022-08-29T06:28:40.615Z,90.88
2022-08-29T06:29:43.701Z,90.78
2022-08-29T06:30:40.547Z,90.28
2022-08-29T06:31:40.522Z,89.87
2022-08-29T06:32:40.534Z,89.67
2022-08-29T06:33:40.494Z,89.57
2022-08-29T06:34:40.486Z,89.43
2022-08-29T06:35:40.489Z,89.47
2022-08-29T06:36:40.594Z,89.47
2022-08-29T06:37:40.477Z,88.96
2022-08-29T06:38:40.455Z,88.56
2022-08-29T06:39:40.451Z,88.76
2022-08-29T06:40:40.690Z,88.76
2022-08-29T06:41:40.465Z,88.76
2022-08-29T06:42:40.405Z,88.56
2022-08-29T06:43:40.374Z,88.26
2022-08-29T06:44:44.368Z,88.36
2022-08-29T06:45:40.327Z,88.16
2022-08-29T06:46:40.384Z,88.16
2022-08-29T06:47:40.384Z,87.96
2022-08-29T06:48:40.304Z,87.76
2022-08-29T06:49:40.311Z,87.45
2022-08-29T06:50:44.863Z,87.65
2022-08-29T06:51:41.282Z,87.85
2022-08-29T06:52:40.316Z,87.55
2022-08-29T06:53:40.390Z,87.45
2022-08-29T06:54:40.312Z,87.35
2022-08-29T06:55:40.184Z,87.55
2022-08-29T06:56:40.202Z,87.51
2022-08-29T06:57:40.379Z,87.21
2022-08-29T06:58:40.192Z,86.71
2022-08-29T06:59:40.257Z,86.41
2022-08-29T07:00:40.165Z,86.30
2022-08-29T07:01:40.187Z,86.36
2022-08-29T07:02:40.479Z,86.06
2022-08-29T07:03:40.141Z,85.76
2022-08-29T07:04:40.066Z,85.25
2022-08-29T07:05:40.051Z,85.16
2022-08-29T07:06:40.053Z,84.95
2022-08-29T07:07:40.178Z,85.25
2022-08-29T07:08:55.098Z,85.56
2022-08-29T07:09:41.007Z,85.62
2022-08-29T07:10:39.991Z,85.22
2022-08-29T07:11:41.274Z,84.61
2022-08-29T07:12:40.121Z,84.37
2022-08-29T07:13:39.951Z,83.00
2022-08-29T07:14:39.962Z,83.11
2022-08-29T07:15:40.615Z,83.40
2022-08-29T07:16:39.966Z,83.17
2022-08-29T07:17:39.974Z,82.90
2022-08-29T07:18:39.915Z,83.11
2022-08-29T07:19:43.721Z,82.60
2022-08-29T07:20:39.899Z,82.70
2022-08-29T07:21:39.855Z,82.50
2022-08-29T07:22:39.867Z,82.84
2022-08-29T07:23:39.816Z,83.20
2022-08-29T07:24:39.830Z,83.04
2022-08-29T07:25:39.796Z,83.14
2022-08-29T07:26:39.792Z,83.14
2022-08-29T07:27:42.303Z,83.45
2022-08-29T07:28:42.227Z,83.99
2022-08-29T07:29:40.740Z,83.89
2022-08-29T07:30:39.818Z,84.19
2022-08-29T07:31:39.731Z,83.89
2022-08-29T07:32:39.740Z,84.05
2022-08-29T07:33:39.751Z,83.75
2022-08-29T07:34:39.751Z,83.65
2022-08-29T07:35:39.658Z,83.54
2022-08-29T07:36:39.706Z,83.25
2022-08-29T07:37:39.652Z,83.25
2022-08-29T07:38:39.711Z,83.11
2022-08-29T07:39:39.611Z,83.00
2022-08-29T07:40:39.702Z,83.20
2022-08-29T07:41:39.655Z,83.06
2022-08-29T07:42:39.600Z,82.56
2022-08-29T07:43:39.567Z,82.56
2022-08-29T07:44:39.585Z,82.46
2022-08-29T07:45:39.780Z,82.36
2022-08-29T07:46:39.576Z,82.22
2022-08-29T07:47:39.919Z,81.72
2022-08-29T07:48:44.839Z,81.32
2022-08-29T07:50:00.823Z,80.91
2022-08-29T07:50:40.072Z,81.32
2022-08-29T07:51:42.348Z,81.62
2022-08-29T07:52:39.464Z,81.27
2022-08-29T07:53:39.449Z,81.07
2022-08-29T07:54:39.410Z,81.18
2022-08-29T07:55:39.512Z,80.88
2022-08-29T07:56:41.369Z,80.63
2022-08-29T07:57:42.659Z,79.83
2022-08-29T07:58:40.409Z,79.73
2022-08-29T07:59:39.446Z,79.73
2022-08-29T08:00:51.047Z,78.73
2022-08-29T08:01:48.937Z,78.89
2022-08-29T08:02:43.320Z,78.39
2022-08-29T08:03:42.592Z,78.45
2022-08-29T08:04:41.669Z,78.45
2022-08-29T08:05:39.405Z,78.25
2022-08-29T08:06:43.013Z,77.85
2022-08-29T08:07:40.114Z,78.05
2022-08-29T08:08:39.257Z,77.72
2022-08-29T08:09:39.289Z,77.91
2022-08-29T08:10:39.410Z,78.22
2022-08-29T08:11:39.222Z,77.91
2022-08-29T08:12:39.184Z,77.51
2022-08-29T08:13:39.416Z,77.11
2022-08-29T08:14:39.151Z,76.65
2022-08-29T08:15:39.131Z,77.05
2022-08-29T08:16:39.245Z,77.25
2022-08-29T08:17:43.943Z,77.15
2022-08-29T08:18:39.114Z,77.35
2022-08-29T08:19:39.218Z,76.75
2022-08-29T08:20:39.468Z,77.05
2022-08-29T08:21:44.856Z,76.65
2022-08-29T08:22:40.082Z,76.75
2022-08-29T08:23:39.144Z,77.55
2022-08-29T08:24:39.037Z,78.05
2022-08-29T08:25:39.023Z,77.81
2022-08-29T08:26:38.999Z,78.22
2022-08-29T08:27:41.319Z,77.91
2022-08-29T08:28:38.992Z,77.41
2022-08-29T08:29:38.991Z,76.71
2022-08-29T08:30:39.000Z,77.31
2022-08-29T08:31:38.983Z,76.98
2022-08-29T08:32:41.143Z,76.71
2022-08-29T08:33:39.940Z,76.81
2022-08-29T08:34:38.877Z,76.71
2022-08-29T08:35:41.940Z,76.78
2022-08-29T08:36:41.365Z,76.98
2022-08-29T08:37:38.894Z,75.87
2022-08-29T08:38:38.863Z,76.17
2022-08-29T08:39:38.849Z,76.28
2022-08-29T08:40:38.947Z,76.67
2022-08-29T08:41:38.790Z,76.28
2022-08-29T08:42:38.821Z,75.63
2022-08-29T08:43:38.893Z,75.74
2022-08-29T08:44:38.755Z,75.74
2022-08-29T08:45:38.846Z,75.67
2022-08-29T08:46:39.453Z,74.73
2022-08-29T08:47:38.705Z,73.43
2022-08-29T08:48:38.735Z,73.00
2022-08-29T08:49:38.966Z,74.60
2022-08-29T08:50:38.721Z,74.40
2022-08-29T08:51:38.676Z,74.50
2022-08-29T08:52:38.648Z,73.70
2022-08-29T08:53:38.986Z,74.63
2022-08-29T08:54:38.696Z,74.54
2022-08-29T08:55:38.612Z,75.04
2022-08-29T08:56:38.606Z,74.80
2022-08-29T08:57:38.612Z,74.60
2022-08-29T08:58:38.581Z,74.60
2022-08-29T08:59:38.690Z,74.80
2022-08-29T09:00:42.439Z,74.10
2022-08-29T09:01:38.946Z,74.37
2022-08-29T09:02:38.675Z,73.56
2022-08-29T09:03:38.532Z,73.63
2022-08-29T09:04:38.507Z,73.63
2022-08-29T09:05:39.523Z,73.22
2022-08-29T09:06:38.595Z,73.49
2022-08-29T09:07:38.463Z,72.69
2022-08-29T09:08:39.448Z,72.59
2022-08-29T09:09:39.041Z,71.99
2022-08-29T09:10:38.407Z,72.56
2022-08-29T09:11:38.419Z,72.39
2022-08-29T09:12:38.400Z,72.09
2022-08-29T09:13:38.364Z,71.89
2022-08-29T09:14:38.381Z,71.69
2022-08-29T09:15:38.384Z,71.62
2022-08-29T09:16:38.418Z,72.63
2022-08-29T09:17:38.359Z,72.23
2022-08-29T09:18:38.386Z,72.09
2022-08-29T09:19:38.304Z,71.59
2022-08-29T09:20:38.424Z,72.59
2022-08-29T09:21:42.059Z,72.69
2022-08-29T09:22:38.291Z,72.03
2022-08-29T09:23:38.387Z,72.53
2022-08-29T09:24:38.278Z,72.72
2022-08-29T09:25:38.287Z,73.43
2022-08-29T09:26:38.247Z,73.03
2022-08-29T09:27:38.320Z,73.83
2022-08-29T09:28:38.207Z,73.22
2022-08-29T09:29:38.235Z,72.23
2022-08-29T09:30:38.479Z,73.03
2022-08-29T09:31:38.242Z,72.92
2022-08-29T09:32:38.121Z,72.33
2022-08-29T09:33:38.408Z,72.23
2022-08-29T09:35:04.496Z,72.03
2022-08-29T09:35:39.084Z,72.23
2022-08-29T09:36:38.089Z,71.92
2022-08-29T09:37:38.080Z,72.33
2022-08-29T09:38:38.035Z,72.63
2022-08-29T09:39:38.077Z,72.92
2022-08-29T09:40:38.411Z,72.79
2022-08-29T09:41:38.070Z,72.39
2022-08-29T09:42:38.036Z,71.99
2022-08-29T09:43:38.011Z,71.09
2022-08-29T09:44:37.994Z,71.39
2022-08-29T09:45:38.248Z,71.49
2022-08-29T09:46:37.921Z,71.39
2022-08-29T09:47:38.067Z,71.39
2022-08-29T09:48:37.987Z,71.42
2022-08-29T09:49:37.953Z,71.62
2022-08-29T09:50:37.900Z,72.42
2022-08-29T09:51:37.866Z,71.49
2022-08-29T09:52:37.865Z,71.49
2022-08-29T09:53:37.934Z,71.09
2022-08-29T09:54:37.855Z,70.59
2022-08-29T09:55:37.875Z,69.69
2022-08-29T09:56:37.829Z,70.59
2022-08-29T09:57:37.816Z,70.79
2022-08-29T09:58:40.219Z,70.62
2022-08-29T09:59:37.799Z,71.03
2022-08-29T10:00:37.860Z,71.03
2022-08-29T10:01:37.770Z,71.09
2022-08-29T10:02:38.165Z,71.09
2022-08-29T10:03:37.883Z,71.29
2022-08-29T10:04:37.720Z,70.69
2022-08-29T10:05:37.683Z,71.59
2022-08-29T10:06:42.705Z,70.19
2022-08-29T10:07:38.744Z,70.19
2022-08-29T10:08:37.673Z,70.29
2022-08-29T10:09:37.655Z,70.66
2022-08-29T10:10:37.664Z,69.26
2022-08-29T10:11:37.602Z,70.09
2022-08-29T10:12:37.846Z,69.99
2022-08-29T10:13:37.589Z,70.09
2022-08-29T10:14:37.652Z,70.06
2022-08-29T10:15:50.419Z,70.26
2022-08-29T10:16:38.543Z,69.56
2022-08-29T10:17:37.524Z,69.96
2022-08-29T10:18:37.526Z,69.73
2022-08-29T10:19:37.511Z,68.82
2022-08-29T10:20:37.636Z,68.33
2022-08-29T10:21:37.536Z,69.29
2022-08-29T10:22:37.499Z,68.19
2022-08-29T10:23:37.451Z,68.66
2022-08-29T10:24:37.447Z,68.36
2022-08-29T10:25:37.447Z,68.06
2022-08-29T10:26:37.558Z,66.89
2022-08-29T10:27:37.807Z,67.69
2022-08-29T10:28:37.395Z,67.99
2022-08-29T10:29:37.393Z,68.43
2022-08-29T10:30:37.447Z,68.73
2022-08-29T10:31:37.486Z,68.33
2022-08-29T10:32:37.476Z,68.93
2022-08-29T10:33:37.308Z,69.32
2022-08-29T10:34:41.345Z,68.63
2022-08-29T10:35:37.353Z,68.96
2022-08-29T10:36:37.323Z,70.06
2022-08-29T10:37:38.060Z,69.76
2022-08-29T10:38:37.258Z,70.46
2022-08-29T10:39:37.252Z,70.66
2022-08-29T10:40:37.292Z,69.56
2022-08-29T10:41:37.235Z,69.79
2022-08-29T10:42:37.192Z,70.09
2022-08-29T10:43:37.175Z,70.49
2022-08-29T10:44:37.322Z,70.69
2022-08-29T10:45:37.362Z,68.89
2022-08-29T10:46:37.422Z,69.16
2022-08-29T10:47:37.403Z,69.36
2022-08-29T10:48:37.126Z,68.76
2022-08-29T10:49:37.879Z,69.26
2022-08-29T10:50:45.545Z,69.16
2022-08-29T10:51:38.089Z,69.06
2022-08-29T10:52:37.070Z,69.02
2022-08-29T10:53:37.067Z,69.13
2022-08-29T10:54:37.257Z,69.20
2022-08-29T10:55:37.094Z,68.29
2022-08-29T10:56:37.118Z,68.40
2022-08-29T10:57:37.012Z,67.90
2022-08-29T10:58:36.992Z,67.60
2022-08-29T10:59:36.994Z,67.30
2022-08-29T11:00:37.015Z,68.03
2022-08-29T11:01:37.101Z,67.33
2022-08-29T11:02:37.025Z,67.80
2022-08-29T11:03:36.990Z,67.10
2022-08-29T11:04:36.946Z,66.89
2022-08-29T11:05:36.903Z,66.50
2022-08-29T11:07:36.862Z,66.39
2022-08-29T11:08:36.885Z,66.86
2022-08-29T11:09:37.102Z,66.66
2022-08-29T11:10:36.997Z,66.83
2022-08-29T11:11:36.828Z,66.20
2022-08-29T11:12:36.862Z,64.24
2022-08-29T11:13:36.786Z,65.34
2022-08-29T11:14:36.786Z,65.64
2022-08-29T11:15:37.516Z,65.34
2022-08-29T11:16:36.840Z,65.37
2022-08-29T11:17:36.812Z,66.24
2022-08-29T11:18:36.716Z,66.13
2022-08-29T11:19:36.704Z,65.64
2022-08-29T11:20:36.780Z,65.94
2022-08-29T11:21:36.705Z,65.53
2022-08-29T11:22:36.765Z,64.94
2022-08-29T11:23:36.657Z,65.44
2022-08-29T11:24:37.980Z,66.63
2022-08-29T11:25:36.642Z,66.50
2022-08-29T11:26:36.782Z,66.00
2022-08-29T11:27:36.643Z,64.41
2022-08-29T11:28:36.640Z,63.91
2022-08-29T11:29:36.693Z,64.11
2022-08-29T11:30:40.319Z,64.71
2022-08-29T11:31:37.651Z,65.31
2022-08-29T11:32:36.602Z,65.57
2022-08-29T11:33:36.525Z,65.17
2022-08-29T11:34:36.512Z,65.27
2022-08-29T11:35:36.537Z,64.75
2022-08-29T11:36:36.494Z,64.28
2022-08-29T11:37:36.467Z,63.48
2022-08-29T11:38:36.535Z,64.11
2022-08-29T11:39:36.456Z,64.51
2022-08-29T11:41:37.544Z,65.23
2022-08-29T11:42:52.372Z,66.00
2022-08-29T11:43:37.383Z,64.81
2022-08-29T11:44:36.389Z,64.21
2022-08-29T11:45:37.377Z,64.34
2022-08-29T11:46:36.417Z,64.64
2022-08-29T11:47:41.055Z,64.94
2022-08-29T11:48:37.337Z,65.14
2022-08-29T11:49:36.468Z,65.11
2022-08-29T11:50:36.301Z,65.01
2022-08-29T11:51:36.585Z,65.11
2022-08-29T11:52:36.280Z,65.61
2022-08-29T11:53:36.298Z,65.57
2022-08-29T11:54:36.272Z,64.28
2022-08-29T11:55:36.223Z,63.98
2022-08-29T11:56:36.239Z,64.21
2022-08-29T11:57:36.203Z,64.21
2022-08-29T11:58:36.206Z,64.51
2022-08-29T11:59:36.234Z,64.74
2022-08-29T12:00:36.202Z,65.44
2022-08-29T12:01:36.246Z,64.54
2022-08-29T12:02:36.138Z,64.84
2022-08-29T12:03:36.735Z,65.11
2022-08-29T12:04:36.287Z,64.41
2022-08-29T12:05:36.104Z,64.51
2022-08-29T12:06:36.179Z,64.51
2022-08-29T12:07:36.136Z,64.41
2022-08-29T12:08:40.031Z,65.14
2022-08-29T12:09:36.058Z,66.03
2022-08-29T12:10:36.018Z,66.96
2022-08-29T12:11:36.023Z,66.47
2022-08-29T12:12:36.015Z,66.39
2022-08-29T12:13:35.978Z,67.19
2022-08-29T12:14:37.940Z,67.00
2022-08-29T12:15:36.050Z,67.13
2022-08-29T12:16:36.020Z,67.83
2022-08-29T12:18:00.423Z,68.23
2022-08-29T12:18:37.082Z,67.83
2022-08-29T12:19:35.909Z,68.13
2022-08-29T12:20:35.901Z,68.76
2022-08-29T12:21:35.987Z,68.52
2022-08-29T12:22:35.961Z,68.76
2022-08-29T12:23:36.493Z,68.46
2022-08-29T12:24:35.875Z,68.99
2022-08-29T12:25:35.876Z,69.39
2022-08-29T12:26:35.821Z,69.19
2022-08-29T12:27:35.887Z,69.06
2022-08-29T12:28:35.825Z,69.16
2022-08-29T12:29:43.736Z,69.66
2022-08-29T12:30:36.809Z,69.36
2022-08-29T12:31:35.821Z,69.06
2022-08-29T12:32:35.898Z,68.16
2022-08-29T12:33:35.863Z,69.66
2022-08-29T12:34:35.735Z,68.96
2022-08-29T12:35:35.761Z,69.16
2022-08-29T12:36:35.788Z,69.46
2022-08-29T12:37:35.721Z,69.46
2022-08-29T12:38:40.037Z,69.13
2022-08-29T12:39:36.640Z,69.43
2022-08-29T12:40:35.709Z,69.09
2022-08-29T12:41:35.615Z,68.49
2022-08-29T12:42:35.616Z,67.60
2022-08-29T12:43:35.825Z,67.90
2022-08-29T12:44:35.742Z,66.89
2022-08-29T12:45:35.578Z,66.80
2022-08-29T12:46:35.731Z,66.70
2022-08-29T12:47:35.554Z,67.00
2022-08-29T12:48:35.611Z,67.10
2022-08-29T12:49:35.518Z,66.89
2022-08-29T12:50:35.534Z,67.30
2022-08-29T12:51:35.537Z,67.49
2022-08-29T12:52:35.511Z,67.10
2022-08-29T12:53:35.539Z,67.19
2022-08-29T12:54:35.494Z,67.19